sensor_id;sensor_type;location;lat;lon;timestamp;P1;durP1;ratioP1;P2;durP2;ratioP2
76546;SDS011;65390;53.014;8.886;2022-12-07T00:02:04;37.35;;;19.10;;
76546;SDS011;65390;53.014;8.886;2022-12-07T00:04:29;35.35;;;17.15;;
76546;SDS011;65390;53.014;8.886;2022-12-07T00:06:55;34.80;;;18.73;;
76546;SDS011;65390;53.014;8.886;2022-12-07T00:09:22;31.48;;;17.25;;
76546;SDS011;65390;53.014;8.886;2022-12-07T00:11:48;31.95;;;16.75;;
76546;SDS011;65390;53.014;8.886;2022-12-07T00:14:15;32.42;;;17.02;;
76546;SDS011;65390;53.014;8.886;2022-12-07T00:16:41;31.73;;;16.65;;
76546;SDS011;65390;53.014;8.886;2022-12-07T00:19:08;30.70;;;15.88;;
76546;SDS011;65390;53.014;8.886;2022-12-07T00:21:35;35.38;;;16.15;;
76546;SDS011;65390;53.014;8.886;2022-12-07T00:24:01;25.88;;;14.55;;
76546;SDS011;65390;53.014;8.886;2022-12-07T00:26:28;28.15;;;14.85;;
76546;SDS011;65390;53.014;8.886;2022-12-07T00:28:58;33.55;;;13.55;;
76546;SDS011;65390;53.014;8.886;2022-12-07T00:31:30;28.98;;;12.55;;
76546;SDS011;65390;53.014;8.886;2022-12-07T00:34:00;21.88;;;11.70;;
76546;SDS011;65390;53.014;8.886;2022-12-07T00:36:26;24.15;;;13.50;;
76546;SDS011;65390;53.014;8.886;2022-12-07T00:38:51;26.85;;;11.60;;
76546;SDS011;65390;53.014;8.886;2022-12-07T00:41:18;25.13;;;11.38;;
76546;SDS011;65390;53.014;8.886;2022-12-07T00:43:46;27.17;;;13.40;;
76546;SDS011;65390;53.014;8.886;2022-12-07T00:46:15;23.10;;;12.10;;
76546;SDS011;65390;53.014;8.886;2022-12-07T00:48:41;22.35;;;12.23;;
76546;SDS011;65390;53.014;8.886;2022-12-07T00:51:07;30.27;;;12.40;;
76546;SDS011;65390;53.014;8.886;2022-12-07T00:53:37;28.23;;;12.93;;
76546;SDS011;65390;53.014;8.886;2022-12-07T00:56:07;24.27;;;12.52;;
76546;SDS011;65390;53.014;8.886;2022-12-07T01:01:08;27.58;;;12.73;;
76546;SDS011;65390;53.014;8.886;2022-12-07T01:03:34;30.23;;;13.27;;
76546;SDS011;65390;53.014;8.886;2022-12-07T01:06:00;30.98;;;13.35;;
76546;SDS011;65390;53.014;8.886;2022-12-07T01:08:26;21.02;;;12.20;;
76546;SDS011;65390;53.014;8.886;2022-12-07T01:11:03;24.95;;;11.82;;
76546;SDS011;65390;53.014;8.886;2022-12-07T01:13:31;26.08;;;13.05;;
76546;SDS011;65390;53.014;8.886;2022-12-07T01:15:58;27.95;;;13.82;;
76546;SDS011;65390;53.014;8.886;2022-12-07T01:18:26;28.20;;;13.52;;
76546;SDS011;65390;53.014;8.886;2022-12-07T01:21:11;31.00;;;12.05;;
76546;SDS011;65390;53.014;8.886;2022-12-07T01:23:39;31.52;;;13.63;;
76546;SDS011;65390;53.014;8.886;2022-12-07T01:26:05;22.13;;;10.60;;
76546;SDS011;65390;53.014;8.886;2022-12-07T01:28:32;23.75;;;11.55;;
76546;SDS011;65390;53.014;8.886;2022-12-07T01:30:59;25.58;;;10.38;;
76546;SDS011;65390;53.014;8.886;2022-12-07T01:33:31;24.60;;;10.70;;
76546;SDS011;65390;53.014;8.886;2022-12-07T01:36:05;20.43;;;10.60;;
76546;SDS011;65390;53.014;8.886;2022-12-07T01:38:32;25.05;;;9.43;;
76546;SDS011;65390;53.014;8.886;2022-12-07T01:40:59;17.23;;;9.57;;
76546;SDS011;65390;53.014;8.886;2022-12-07T01:43:26;20.13;;;10.50;;
76546;SDS011;65390;53.014;8.886;2022-12-07T01:45:53;19.58;;;9.52;;
76546;SDS011;65390;53.014;8.886;2022-12-07T01:48:24;16.98;;;8.38;;
76546;SDS011;65390;53.014;8.886;2022-12-07T01:50:54;19.25;;;8.88;;
76546;SDS011;65390;53.014;8.886;2022-12-07T01:53:21;16.17;;;7.50;;
76546;SDS011;65390;53.014;8.886;2022-12-07T01:55:52;28.70;;;9.13;;
76546;SDS011;65390;53.014;8.886;2022-12-07T01:58:18;18.02;;;8.30;;
76546;SDS011;65390;53.014;8.886;2022-12-07T02:00:44;15.45;;;6.88;;
76546;SDS011;65390;53.014;8.886;2022-12-07T02:03:24;14.00;;;6.50;;
76546;SDS011;65390;53.014;8.886;2022-12-07T02:05:55;15.27;;;5.88;;
76546;SDS011;65390;53.014;8.886;2022-12-07T02:08:22;16.52;;;5.72;;
76546;SDS011;65390;53.014;8.886;2022-12-07T02:10:47;12.77;;;5.35;;
76546;SDS011;65390;53.014;8.886;2022-12-07T02:13:14;18.80;;;6.55;;
76546;SDS011;65390;53.014;8.886;2022-12-07T02:18:52;12.50;;;5.07;;
76546;SDS011;65390;53.014;8.886;2022-12-07T02:31:59;11.25;;;5.95;;
76546;SDS011;65390;53.014;8.886;2022-12-07T02:34:34;19.88;;;6.75;;
76546;SDS011;65390;53.014;8.886;2022-12-07T02:37:08;15.43;;;7.70;;
76546;SDS011;65390;53.014;8.886;2022-12-07T02:39:47;19.10;;;7.30;;
76546;SDS011;65390;53.014;8.886;2022-12-07T02:42:23;20.00;;;8.23;;
76546;SDS011;65390;53.014;8.886;2022-12-07T02:44:55;17.80;;;7.57;;
76546;SDS011;65390;53.014;8.886;2022-12-07T02:47:21;14.82;;;7.80;;
76546;SDS011;65390;53.014;8.886;2022-12-07T02:49:49;23.30;;;8.80;;
76546;SDS011;65390;53.014;8.886;2022-12-07T02:52:16;15.93;;;7.65;;
76546;SDS011;65390;53.014;8.886;2022-12-07T02:54:41;21.20;;;8.55;;
76546;SDS011;65390;53.014;8.886;2022-12-07T03:00:13;18.80;;;8.00;;
76546;SDS011;65390;53.014;8.886;2022-12-07T03:13:46;21.15;;;9.20;;
76546;SDS011;65390;53.014;8.886;2022-12-07T03:19:00;15.95;;;7.45;;
76546;SDS011;65390;53.014;8.886;2022-12-07T03:21:37;14.15;;;5.93;;
76546;SDS011;65390;53.014;8.886;2022-12-07T03:24:15;16.90;;;5.53;;
76546;SDS011;65390;53.014;8.886;2022-12-07T03:26:46;9.25;;;4.07;;
76546;SDS011;65390;53.014;8.886;2022-12-07T03:29:30;8.23;;;3.72;;
76546;SDS011;65390;53.014;8.886;2022-12-07T03:32:03;9.02;;;2.92;;
76546;SDS011;65390;53.014;8.886;2022-12-07T03:34:34;12.13;;;3.28;;
76546;SDS011;65390;53.014;8.886;2022-12-07T03:37:10;5.90;;;2.55;;
76546;SDS011;65390;53.014;8.886;2022-12-07T03:39:44;10.65;;;2.60;;
76546;SDS011;65390;53.014;8.886;2022-12-07T03:42:14;5.53;;;2.42;;
76546;SDS011;65390;53.014;8.886;2022-12-07T03:44:40;8.35;;;2.50;;
76546;SDS011;65390;53.014;8.886;2022-12-07T03:47:20;8.38;;;2.33;;
76546;SDS011;65390;53.014;8.886;2022-12-07T03:50:06;9.93;;;2.42;;
76546;SDS011;65390;53.014;8.886;2022-12-07T03:52:38;9.25;;;2.97;;
76546;SDS011;65390;53.014;8.886;2022-12-07T03:57:54;8.68;;;2.83;;
76546;SDS011;65390;53.014;8.886;2022-12-07T04:00:23;8.63;;;2.60;;
76546;SDS011;65390;53.014;8.886;2022-12-07T04:02:51;12.77;;;3.42;;
76546;SDS011;65390;53.014;8.886;2022-12-07T04:05:17;11.65;;;3.83;;
76546;SDS011;65390;53.014;8.886;2022-12-07T04:07:43;17.92;;;4.72;;
76546;SDS011;65390;53.014;8.886;2022-12-07T04:10:09;16.80;;;5.93;;
76546;SDS011;65390;53.014;8.886;2022-12-07T04:12:39;18.77;;;5.43;;
76546;SDS011;65390;53.014;8.886;2022-12-07T04:15:11;19.10;;;6.28;;
76546;SDS011;65390;53.014;8.886;2022-12-07T04:17:46;20.37;;;6.43;;
76546;SDS011;65390;53.014;8.886;2022-12-07T04:20:22;12.32;;;6.38;;
76546;SDS011;65390;53.014;8.886;2022-12-07T04:22:47;23.83;;;7.38;;
76546;SDS011;65390;53.014;8.886;2022-12-07T04:25:20;24.50;;;7.53;;
76546;SDS011;65390;53.014;8.886;2022-12-07T04:27:48;16.92;;;9.02;;
76546;SDS011;65390;53.014;8.886;2022-12-07T04:30:13;17.15;;;7.65;;
76546;SDS011;65390;53.014;8.886;2022-12-07T04:32:44;20.45;;;8.25;;
76546;SDS011;65390;53.014;8.886;2022-12-07T04:35:12;17.95;;;7.95;;
76546;SDS011;65390;53.014;8.886;2022-12-07T04:37:40;22.52;;;8.27;;
76546;SDS011;65390;53.014;8.886;2022-12-07T04:40:07;21.30;;;9.43;;
76546;SDS011;65390;53.014;8.886;2022-12-07T04:42:35;19.40;;;7.78;;
76546;SDS011;65390;53.014;8.886;2022-12-07T04:45:01;19.65;;;7.40;;
76546;SDS011;65390;53.014;8.886;2022-12-07T04:47:27;18.33;;;7.78;;
76546;SDS011;65390;53.014;8.886;2022-12-07T04:49:52;24.17;;;7.78;;
76546;SDS011;65390;53.014;8.886;2022-12-07T04:52:18;21.05;;;7.95;;
76546;SDS011;65390;53.014;8.886;2022-12-07T04:54:44;21.00;;;9.38;;
76546;SDS011;65390;53.014;8.886;2022-12-07T04:57:10;24.67;;;9.10;;
76546;SDS011;65390;53.014;8.886;2022-12-07T04:59:35;17.20;;;7.32;;
76546;SDS011;65390;53.014;8.886;2022-12-07T05:02:00;21.40;;;8.43;;
76546;SDS011;65390;53.014;8.886;2022-12-07T05:04:26;18.25;;;8.15;;
76546;SDS011;65390;53.014;8.886;2022-12-07T05:06:51;21.15;;;8.23;;
76546;SDS011;65390;53.014;8.886;2022-12-07T05:09:20;13.23;;;6.70;;
76546;SDS011;65390;53.014;8.886;2022-12-07T05:11:53;16.05;;;7.60;;
76546;SDS011;65390;53.014;8.886;2022-12-07T05:14:19;22.05;;;7.57;;
76546;SDS011;65390;53.014;8.886;2022-12-07T05:16:46;14.93;;;7.13;;
76546;SDS011;65390;53.014;8.886;2022-12-07T05:19:14;22.73;;;8.50;;
76546;SDS011;65390;53.014;8.886;2022-12-07T05:21:42;13.00;;;5.57;;
76546;SDS011;65390;53.014;8.886;2022-12-07T05:24:09;17.05;;;6.13;;
76546;SDS011;65390;53.014;8.886;2022-12-07T05:26:44;19.13;;;6.70;;
76546;SDS011;65390;53.014;8.886;2022-12-07T05:29:12;18.95;;;6.38;;
76546;SDS011;65390;53.014;8.886;2022-12-07T05:31:39;19.02;;;6.13;;
76546;SDS011;65390;53.014;8.886;2022-12-07T05:34:08;11.55;;;5.57;;
76546;SDS011;65390;53.014;8.886;2022-12-07T05:36:34;16.95;;;4.90;;
76546;SDS011;65390;53.014;8.886;2022-12-07T05:39:02;15.07;;;5.90;;
76546;SDS011;65390;53.014;8.886;2022-12-07T05:41:28;8.57;;;4.93;;
76546;SDS011;65390;53.014;8.886;2022-12-07T05:44:12;24.45;;;5.15;;
76546;SDS011;65390;53.014;8.886;2022-12-07T05:46:38;13.60;;;4.90;;
76546;SDS011;65390;53.014;8.886;2022-12-07T05:49:20;14.40;;;4.97;;
76546;SDS011;65390;53.014;8.886;2022-12-07T05:51:48;11.32;;;4.63;;
76546;SDS011;65390;53.014;8.886;2022-12-07T05:54:16;14.93;;;4.55;;
76546;SDS011;65390;53.014;8.886;2022-12-07T05:56:44;16.95;;;4.65;;
76546;SDS011;65390;53.014;8.886;2022-12-07T05:59:12;25.30;;;6.88;;
76546;SDS011;65390;53.014;8.886;2022-12-07T06:02:00;14.15;;;4.97;;
76546;SDS011;65390;53.014;8.886;2022-12-07T06:04:38;7.80;;;3.58;;
76546;SDS011;65390;53.014;8.886;2022-12-07T06:07:06;19.23;;;5.15;;
76546;SDS011;65390;53.014;8.886;2022-12-07T06:09:34;14.30;;;3.97;;
76546;SDS011;65390;53.014;8.886;2022-12-07T06:12:01;12.98;;;3.70;;
76546;SDS011;65390;53.014;8.886;2022-12-07T06:14:48;10.43;;;3.95;;
76546;SDS011;65390;53.014;8.886;2022-12-07T06:17:15;11.57;;;4.47;;
76546;SDS011;65390;53.014;8.886;2022-12-07T06:19:40;13.60;;;3.80;;
76546;SDS011;65390;53.014;8.886;2022-12-07T06:22:07;15.07;;;3.83;;
76546;SDS011;65390;53.014;8.886;2022-12-07T06:24:35;23.80;;;3.53;;
76546;SDS011;65390;53.014;8.886;2022-12-07T06:27:05;13.40;;;3.45;;
76546;SDS011;65390;53.014;8.886;2022-12-07T06:29:32;8.63;;;3.20;;
76546;SDS011;65390;53.014;8.886;2022-12-07T06:32:01;6.40;;;2.65;;
76546;SDS011;65390;53.014;8.886;2022-12-07T06:34:29;12.63;;;3.58;;
76546;SDS011;65390;53.014;8.886;2022-12-07T06:36:55;7.93;;;3.53;;
76546;SDS011;65390;53.014;8.886;2022-12-07T06:39:23;12.50;;;3.50;;
76546;SDS011;65390;53.014;8.886;2022-12-07T06:41:51;19.70;;;3.40;;
76546;SDS011;65390;53.014;8.886;2022-12-07T06:44:18;6.18;;;3.15;;
76546;SDS011;65390;53.014;8.886;2022-12-07T06:46:48;8.95;;;3.00;;
76546;SDS011;65390;53.014;8.886;2022-12-07T06:49:17;11.38;;;3.35;;
76546;SDS011;65390;53.014;8.886;2022-12-07T06:51:45;10.32;;;3.10;;
76546;SDS011;65390;53.014;8.886;2022-12-07T06:54:11;15.05;;;3.05;;
76546;SDS011;65390;53.014;8.886;2022-12-07T06:59:06;21.55;;;3.67;;
76546;SDS011;65390;53.014;8.886;2022-12-07T07:01:32;10.93;;;3.10;;
76546;SDS011;65390;53.014;8.886;2022-12-07T07:03:59;6.57;;;3.08;;
76546;SDS011;65390;53.014;8.886;2022-12-07T07:06:25;13.93;;;3.13;;
76546;SDS011;65390;53.014;8.886;2022-12-07T07:08:50;7.10;;;3.08;;
76546;SDS011;65390;53.014;8.886;2022-12-07T07:11:16;14.02;;;2.90;;
76546;SDS011;65390;53.014;8.886;2022-12-07T07:13:44;18.83;;;3.47;;
76546;SDS011;65390;53.014;8.886;2022-12-07T07:16:16;14.10;;;3.10;;
76546;SDS011;65390;53.014;8.886;2022-12-07T07:18:52;12.57;;;3.30;;
76546;SDS011;65390;53.014;8.886;2022-12-07T07:21:22;9.73;;;3.47;;
76546;SDS011;65390;53.014;8.886;2022-12-07T07:23:50;12.35;;;3.30;;
76546;SDS011;65390;53.014;8.886;2022-12-07T07:26:20;10.43;;;3.95;;
76546;SDS011;65390;53.014;8.886;2022-12-07T07:28:46;11.38;;;3.35;;
76546;SDS011;65390;53.014;8.886;2022-12-07T07:31:13;15.60;;;3.42;;
76546;SDS011;65390;53.014;8.886;2022-12-07T07:33:39;12.85;;;2.65;;
76546;SDS011;65390;53.014;8.886;2022-12-07T07:36:04;10.43;;;2.42;;
76546;SDS011;65390;53.014;8.886;2022-12-07T07:38:30;28.65;;;4.93;;
76546;SDS011;65390;53.014;8.886;2022-12-07T07:40:55;10.25;;;2.58;;
76546;SDS011;65390;53.014;8.886;2022-12-07T07:43:21;8.27;;;2.72;;
76546;SDS011;65390;53.014;8.886;2022-12-07T07:45:46;6.97;;;2.30;;
76546;SDS011;65390;53.014;8.886;2022-12-07T07:48:11;11.27;;;3.00;;
76546;SDS011;65390;53.014;8.886;2022-12-07T07:50:37;7.32;;;2.50;;
76546;SDS011;65390;53.014;8.886;2022-12-07T07:53:02;19.58;;;4.13;;
76546;SDS011;65390;53.014;8.886;2022-12-07T07:55:28;11.27;;;4.97;;
76546;SDS011;65390;53.014;8.886;2022-12-07T07:57:53;13.73;;;5.05;;
76546;SDS011;65390;53.014;8.886;2022-12-07T08:00:19;12.55;;;3.83;;
76546;SDS011;65390;53.014;8.886;2022-12-07T08:02:45;6.35;;;2.47;;
76546;SDS011;65390;53.014;8.886;2022-12-07T08:05:11;14.48;;;5.47;;
76546;SDS011;65390;53.014;8.886;2022-12-07T08:07:39;11.55;;;4.53;;
76546;SDS011;65390;53.014;8.886;2022-12-07T08:10:05;24.17;;;12.32;;
76546;SDS011;65390;53.014;8.886;2022-12-07T08:12:37;19.25;;;4.03;;
76546;SDS011;65390;53.014;8.886;2022-12-07T08:15:25;19.50;;;8.20;;
76546;SDS011;65390;53.014;8.886;2022-12-07T08:17:53;14.02;;;3.83;;
76546;SDS011;65390;53.014;8.886;2022-12-07T08:20:22;5.88;;;2.10;;
76546;SDS011;65390;53.014;8.886;2022-12-07T08:22:50;9.00;;;3.25;;
76546;SDS011;65390;53.014;8.886;2022-12-07T08:25:21;5.55;;;2.15;;
76546;SDS011;65390;53.014;8.886;2022-12-07T08:27:54;11.13;;;3.30;;
76546;SDS011;65390;53.014;8.886;2022-12-07T08:30:23;11.43;;;3.10;;
76546;SDS011;65390;53.014;8.886;2022-12-07T08:32:50;5.97;;;2.67;;
76546;SDS011;65390;53.014;8.886;2022-12-07T08:35:17;4.28;;;2.15;;
76546;SDS011;65390;53.014;8.886;2022-12-07T08:37:44;8.52;;;2.53;;
76546;SDS011;65390;53.014;8.886;2022-12-07T08:40:11;13.23;;;4.90;;
76546;SDS011;65390;53.014;8.886;2022-12-07T08:42:42;6.28;;;1.98;;
76546;SDS011;65390;53.014;8.886;2022-12-07T08:45:12;5.72;;;2.88;;
76546;SDS011;65390;53.014;8.886;2022-12-07T08:47:44;7.38;;;4.28;;
76546;SDS011;65390;53.014;8.886;2022-12-07T08:50:16;16.33;;;8.20;;
76546;SDS011;65390;53.014;8.886;2022-12-07T08:52:43;13.85;;;5.20;;
76546;SDS011;65390;53.014;8.886;2022-12-07T08:55:11;9.90;;;3.08;;
76546;SDS011;65390;53.014;8.886;2022-12-07T08:57:38;14.15;;;5.40;;
76546;SDS011;65390;53.014;8.886;2022-12-07T09:00:05;17.98;;;5.00;;
76546;SDS011;65390;53.014;8.886;2022-12-07T09:02:33;13.68;;;5.65;;
76546;SDS011;65390;53.014;8.886;2022-12-07T09:05:01;10.50;;;4.88;;
76546;SDS011;65390;53.014;8.886;2022-12-07T09:07:29;20.08;;;5.13;;
76546;SDS011;65390;53.014;8.886;2022-12-07T09:12:24;5.35;;;2.33;;
76546;SDS011;65390;53.014;8.886;2022-12-07T09:14:51;6.80;;;3.05;;
76546;SDS011;65390;53.014;8.886;2022-12-07T09:17:18;25.65;;;11.48;;
76546;SDS011;65390;53.014;8.886;2022-12-07T09:19:44;9.40;;;4.63;;
76546;SDS011;65390;53.014;8.886;2022-12-07T09:22:11;25.92;;;10.70;;
76546;SDS011;65390;53.014;8.886;2022-12-07T09:24:37;24.20;;;11.15;;
76546;SDS011;65390;53.014;8.886;2022-12-07T09:27:04;29.42;;;13.77;;
76546;SDS011;65390;53.014;8.886;2022-12-07T09:29:31;16.38;;;7.28;;
76546;SDS011;65390;53.014;8.886;2022-12-07T09:31:57;15.32;;;7.18;;
76546;SDS011;65390;53.014;8.886;2022-12-07T09:34:25;59.72;;;27.83;;
76546;SDS011;65390;53.014;8.886;2022-12-07T09:36:53;13.50;;;4.05;;
76546;SDS011;65390;53.014;8.886;2022-12-07T09:39:20;9.68;;;2.30;;
76546;SDS011;65390;53.014;8.886;2022-12-07T09:41:46;7.20;;;2.80;;
76546;SDS011;65390;53.014;8.886;2022-12-07T09:44:14;15.23;;;6.28;;
76546;SDS011;65390;53.014;8.886;2022-12-07T09:46:50;16.40;;;9.02;;
76546;SDS011;65390;53.014;8.886;2022-12-07T09:54:36;4.28;;;2.67;;
76546;SDS011;65390;53.014;8.886;2022-12-07T09:57:10;7.15;;;2.63;;
76546;SDS011;65390;53.014;8.886;2022-12-07T09:59:37;5.35;;;2.13;;
76546;SDS011;65390;53.014;8.886;2022-12-07T10:05:03;16.33;;;8.82;;
76546;SDS011;65390;53.014;8.886;2022-12-07T10:07:36;33.28;;;16.27;;
76546;SDS011;65390;53.014;8.886;2022-12-07T10:10:04;7.32;;;3.30;;
76546;SDS011;65390;53.014;8.886;2022-12-07T10:15:56;13.45;;;3.15;;
76546;SDS011;65390;53.014;8.886;2022-12-07T10:24:05;9.32;;;2.53;;
76546;SDS011;65390;53.014;8.886;2022-12-07T10:26:52;40.80;;;19.85;;
76546;SDS011;65390;53.014;8.886;2022-12-07T10:32:05;8.85;;;3.30;;
76546;SDS011;65390;53.014;8.886;2022-12-07T10:35:15;5.45;;;2.80;;
76546;SDS011;65390;53.014;8.886;2022-12-07T10:37:46;12.07;;;4.38;;
76546;SDS011;65390;53.014;8.886;2022-12-07T10:43:15;6.45;;;2.55;;
76546;SDS011;65390;53.014;8.886;2022-12-07T10:51:19;9.75;;;3.30;;
76546;SDS011;65390;53.014;8.886;2022-12-07T10:56:52;10.35;;;2.88;;
76546;SDS011;65390;53.014;8.886;2022-12-07T10:59:51;13.38;;;3.90;;
76546;SDS011;65390;53.014;8.886;2022-12-07T11:02:30;14.05;;;3.78;;
76546;SDS011;65390;53.014;8.886;2022-12-07T11:11:33;5.93;;;1.90;;
76546;SDS011;65390;53.014;8.886;2022-12-07T11:16:57;13.18;;;3.22;;
76546;SDS011;65390;53.014;8.886;2022-12-07T11:22:35;5.13;;;2.22;;
76546;SDS011;65390;53.014;8.886;2022-12-07T11:25:30;7.82;;;2.10;;
76546;SDS011;65390;53.014;8.886;2022-12-07T11:28:14;9.95;;;2.25;;
76546;SDS011;65390;53.014;8.886;2022-12-07T11:31:03;7.70;;;1.90;;
76546;SDS011;65390;53.014;8.886;2022-12-07T11:39:06;5.97;;;1.92;;
76546;SDS011;65390;53.014;8.886;2022-12-07T11:41:41;9.20;;;2.40;;
76546;SDS011;65390;53.014;8.886;2022-12-07T11:44:22;6.22;;;1.85;;
76546;SDS011;65390;53.014;8.886;2022-12-07T11:47:16;10.13;;;2.42;;
76546;SDS011;65390;53.014;8.886;2022-12-07T11:49:54;11.40;;;1.73;;
76546;SDS011;65390;53.014;8.886;2022-12-07T11:52:46;10.30;;;2.33;;
76546;SDS011;65390;53.014;8.886;2022-12-07T12:03:45;8.25;;;2.13;;
76546;SDS011;65390;53.014;8.886;2022-12-07T12:06:15;9.35;;;1.45;;
76546;SDS011;65390;53.014;8.886;2022-12-07T12:08:52;10.05;;;1.52;;
76546;SDS011;65390;53.014;8.886;2022-12-07T12:14:21;11.18;;;2.22;;
76546;SDS011;65390;53.014;8.886;2022-12-07T12:17:18;6.20;;;1.73;;
76546;SDS011;65390;53.014;8.886;2022-12-07T12:22:14;5.95;;;1.70;;
76546;SDS011;65390;53.014;8.886;2022-12-07T12:24:43;9.15;;;1.48;;
76546;SDS011;65390;53.014;8.886;2022-12-07T12:30:23;6.88;;;2.25;;
76546;SDS011;65390;53.014;8.886;2022-12-07T12:38:48;10.77;;;2.60;;
76546;SDS011;65390;53.014;8.886;2022-12-07T12:47:02;4.20;;;1.55;;
76546;SDS011;65390;53.014;8.886;2022-12-07T12:54:59;7.63;;;2.15;;
76546;SDS011;65390;53.014;8.886;2022-12-07T12:57:29;7.53;;;2.00;;
76546;SDS011;65390;53.014;8.886;2022-12-07T12:59:58;10.95;;;2.20;;
76546;SDS011;65390;53.014;8.886;2022-12-07T13:02:32;11.50;;;2.03;;
76546;SDS011;65390;53.014;8.886;2022-12-07T13:10:35;5.22;;;1.55;;
76546;SDS011;65390;53.014;8.886;2022-12-07T13:20:55;6.38;;;1.30;;
76546;SDS011;65390;53.014;8.886;2022-12-07T13:26:48;5.57;;;1.17;;
76546;SDS011;65390;53.014;8.886;2022-12-07T13:29:25;9.68;;;1.70;;
76546;SDS011;65390;53.014;8.886;2022-12-07T13:35:41;7.53;;;1.83;;
76546;SDS011;65390;53.014;8.886;2022-12-07T13:38:48;9.48;;;2.05;;
76546;SDS011;65390;53.014;8.886;2022-12-07T13:41:36;10.73;;;2.53;;
76546;SDS011;65390;53.014;8.886;2022-12-07T13:44:46;5.15;;;2.63;;
76546;SDS011;65390;53.014;8.886;2022-12-07T13:50:29;9.98;;;3.33;;
76546;SDS011;65390;53.014;8.886;2022-12-07T13:53:01;13.05;;;3.05;;
76546;SDS011;65390;53.014;8.886;2022-12-07T13:55:55;11.60;;;2.95;;
76546;SDS011;65390;53.014;8.886;2022-12-07T13:58:43;10.88;;;2.60;;
76546;SDS011;65390;53.014;8.886;2022-12-07T14:01:14;15.65;;;3.97;;
76546;SDS011;65390;53.014;8.886;2022-12-07T14:03:56;14.55;;;3.22;;
76546;SDS011;65390;53.014;8.886;2022-12-07T14:06:51;11.30;;;2.13;;
76546;SDS011;65390;53.014;8.886;2022-12-07T14:09:28;8.65;;;2.05;;
76546;SDS011;65390;53.014;8.886;2022-12-07T14:12:05;6.63;;;2.38;;
76546;SDS011;65390;53.014;8.886;2022-12-07T14:14:37;5.75;;;2.05;;
76546;SDS011;65390;53.014;8.886;2022-12-07T14:20:36;11.68;;;6.32;;
76546;SDS011;65390;53.014;8.886;2022-12-07T14:23:25;7.70;;;3.08;;
76546;SDS011;65390;53.014;8.886;2022-12-07T14:25:52;2.92;;;1.30;;
76546;SDS011;65390;53.014;8.886;2022-12-07T14:33:45;3.95;;;1.95;;
76546;SDS011;65390;53.014;8.886;2022-12-07T14:36:11;7.80;;;1.92;;
76546;SDS011;65390;53.014;8.886;2022-12-07T14:38:39;11.33;;;1.90;;
76546;SDS011;65390;53.014;8.886;2022-12-07T14:41:18;9.07;;;2.37;;
76546;SDS011;65390;53.014;8.886;2022-12-07T14:44:12;5.97;;;2.08;;
76546;SDS011;65390;53.014;8.886;2022-12-07T14:46:42;4.90;;;2.33;;
76546;SDS011;65390;53.014;8.886;2022-12-07T14:49:15;8.68;;;1.80;;
76546;SDS011;65390;53.014;8.886;2022-12-07T14:51:41;7.63;;;1.98;;
76546;SDS011;65390;53.014;8.886;2022-12-07T14:54:19;14.93;;;2.50;;
76546;SDS011;65390;53.014;8.886;2022-12-07T14:56:45;4.50;;;1.77;;
76546;SDS011;65390;53.014;8.886;2022-12-07T14:59:17;6.15;;;2.15;;
76546;SDS011;65390;53.014;8.886;2022-12-07T15:01:43;11.10;;;2.45;;
76546;SDS011;65390;53.014;8.886;2022-12-07T15:04:20;8.05;;;3.53;;
76546;SDS011;65390;53.014;8.886;2022-12-07T15:06:54;20.15;;;10.95;;
76546;SDS011;65390;53.014;8.886;2022-12-07T15:09:22;19.05;;;8.20;;
76546;SDS011;65390;53.014;8.886;2022-12-07T15:11:58;9.90;;;5.93;;
76546;SDS011;65390;53.014;8.886;2022-12-07T15:14:23;20.35;;;8.73;;
76546;SDS011;65390;53.014;8.886;2022-12-07T15:16:51;9.20;;;4.20;;
76546;SDS011;65390;53.014;8.886;2022-12-07T15:19:18;20.08;;;7.68;;
76546;SDS011;65390;53.014;8.886;2022-12-07T15:21:50;20.17;;;10.32;;
76546;SDS011;65390;53.014;8.886;2022-12-07T15:24:19;12.07;;;4.50;;
76546;SDS011;65390;53.014;8.886;2022-12-07T15:26:47;13.48;;;5.78;;
76546;SDS011;65390;53.014;8.886;2022-12-07T15:29:18;17.80;;;11.60;;
76546;SDS011;65390;53.014;8.886;2022-12-07T15:31:47;11.68;;;7.00;;
76546;SDS011;65390;53.014;8.886;2022-12-07T15:34:14;6.70;;;2.55;;
76546;SDS011;65390;53.014;8.886;2022-12-07T15:36:39;11.20;;;5.90;;
76546;SDS011;65390;53.014;8.886;2022-12-07T15:39:08;8.05;;;5.40;;
76546;SDS011;65390;53.014;8.886;2022-12-07T15:41:56;12.48;;;8.38;;
76546;SDS011;65390;53.014;8.886;2022-12-07T15:44:22;18.52;;;9.35;;
76546;SDS011;65390;53.014;8.886;2022-12-07T15:47:09;26.58;;;13.18;;
76546;SDS011;65390;53.014;8.886;2022-12-07T15:49:39;11.52;;;6.38;;
76546;SDS011;65390;53.014;8.886;2022-12-07T15:52:06;16.45;;;8.57;;
76546;SDS011;65390;53.014;8.886;2022-12-07T15:54:33;22.92;;;11.15;;
76546;SDS011;65390;53.014;8.886;2022-12-07T15:57:00;6.97;;;3.90;;
76546;SDS011;65390;53.014;8.886;2022-12-07T15:59:30;5.82;;;3.13;;
76546;SDS011;65390;53.014;8.886;2022-12-07T16:02:04;38.83;;;14.70;;
76546;SDS011;65390;53.014;8.886;2022-12-07T16:04:33;9.68;;;5.00;;
76546;SDS011;65390;53.014;8.886;2022-12-07T16:07:02;5.75;;;3.00;;
76546;SDS011;65390;53.014;8.886;2022-12-07T16:09:28;23.00;;;9.32;;
76546;SDS011;65390;53.014;8.886;2022-12-07T16:12:00;52.15;;;18.15;;
76546;SDS011;65390;53.014;8.886;2022-12-07T16:16:54;9.75;;;4.63;;
76546;SDS011;65390;53.014;8.886;2022-12-07T16:19:19;24.52;;;7.30;;
76546;SDS011;65390;53.014;8.886;2022-12-07T16:21:57;81.95;;;26.98;;
76546;SDS011;65390;53.014;8.886;2022-12-07T16:24:23;14.40;;;6.03;;
76546;SDS011;65390;53.014;8.886;2022-12-07T16:26:50;15.82;;;9.50;;
76546;SDS011;65390;53.014;8.886;2022-12-07T16:29:19;14.32;;;5.53;;
76546;SDS011;65390;53.014;8.886;2022-12-07T16:31:52;13.88;;;5.68;;
76546;SDS011;65390;53.014;8.886;2022-12-07T16:34:18;15.82;;;6.72;;
76546;SDS011;65390;53.014;8.886;2022-12-07T16:36:44;8.13;;;3.15;;
76546;SDS011;65390;53.014;8.886;2022-12-07T16:39:12;6.82;;;4.35;;
76546;SDS011;65390;53.014;8.886;2022-12-07T16:41:40;13.90;;;6.25;;
76546;SDS011;65390;53.014;8.886;2022-12-07T16:44:06;8.27;;;5.10;;
76546;SDS011;65390;53.014;8.886;2022-12-07T16:46:34;18.57;;;10.03;;
76546;SDS011;65390;53.014;8.886;2022-12-07T16:49:01;27.05;;;17.15;;
76546;SDS011;65390;53.014;8.886;2022-12-07T16:51:28;30.80;;;17.30;;
76546;SDS011;65390;53.014;8.886;2022-12-07T16:53:55;34.22;;;13.65;;
76546;SDS011;65390;53.014;8.886;2022-12-07T16:56:23;38.38;;;17.92;;
76546;SDS011;65390;53.014;8.886;2022-12-07T16:58:53;28.88;;;11.60;;
76546;SDS011;65390;53.014;8.886;2022-12-07T17:01:20;20.30;;;9.20;;
76546;SDS011;65390;53.014;8.886;2022-12-07T17:03:47;17.92;;;8.60;;
76546;SDS011;65390;53.014;8.886;2022-12-07T17:06:22;12.32;;;4.25;;
76546;SDS011;65390;53.014;8.886;2022-12-07T17:08:50;16.25;;;5.47;;
76546;SDS011;65390;53.014;8.886;2022-12-07T17:11:19;14.02;;;4.80;;
76546;SDS011;65390;53.014;8.886;2022-12-07T17:14:01;12.50;;;4.35;;
76546;SDS011;65390;53.014;8.886;2022-12-07T17:17:13;15.65;;;3.90;;
76546;SDS011;65390;53.014;8.886;2022-12-07T17:23:27;12.32;;;4.20;;
76546;SDS011;65390;53.014;8.886;2022-12-07T17:29:41;9.75;;;4.47;;
76546;SDS011;65390;53.014;8.886;2022-12-07T17:32:22;6.88;;;3.90;;
76546;SDS011;65390;53.014;8.886;2022-12-07T17:35:22;10.82;;;3.97;;
76546;SDS011;65390;53.014;8.886;2022-12-07T17:47:17;26.08;;;11.35;;
76546;SDS011;65390;53.014;8.886;2022-12-07T17:50:02;38.60;;;12.50;;
76546;SDS011;65390;53.014;8.886;2022-12-07T17:53:07;28.13;;;15.00;;
76546;SDS011;65390;53.014;8.886;2022-12-07T17:56:01;105.50;;;39.63;;